sensor_id;sensor_type;location;lat;lon;timestamp;temperature;humidity
9043;DHT22;4556;49.150;8.808;2022-08-19T00:00:38;19.90;99.90
9043;DHT22;4556;49.150;8.808;2022-08-19T00:03:05;19.90;99.90
9043;DHT22;4556;49.150;8.808;2022-08-19T00:05:36;19.90;99.90
9043;DHT22;4556;49.150;8.808;2022-08-19T00:08:03;19.90;99.90
9043;DHT22;4556;49.150;8.808;2022-08-19T00:10:30;19.10;99.90
9043;DHT22;4556;49.150;8.808;2022-08-19T00:12:57;19.90;99.90
9043;DHT22;4556;49.150;8.808;2022-08-19T00:15:25;19.90;99.90
9043;DHT22;4556;49.150;8.808;2022-08-19T00:17:52;19.90;99.90
9043;DHT22;4556;49.150;8.808;2022-08-19T00:20:20;19.80;99.90
9043;DHT22;4556;49.150;8.808;2022-08-19T00:22:49;19.90;99.90
9043;DHT22;4556;49.150;8.808;2022-08-19T00:25:17;19.90;99.90
9043;DHT22;4556;49.150;8.808;2022-08-19T00:27:44;19.80;99.90
9043;DHT22;4556;49.150;8.808;2022-08-19T00:30:13;19.80;99.90
9043;DHT22;4556;49.150;8.808;2022-08-19T00:32:40;19.70;99.90
9043;DHT22;4556;49.150;8.808;2022-08-19T00:35:09;19.80;99.90
9043;DHT22;4556;49.150;8.808;2022-08-19T00:37:37;19.80;99.90
9043;DHT22;4556;49.150;8.808;2022-08-19T00:40:12;19.80;99.90
9043;DHT22;4556;49.150;8.808;2022-08-19T00:42:39;19.80;99.90
9043;DHT22;4556;49.150;8.808;2022-08-19T00:45:11;19.80;99.90
9043;DHT22;4556;49.150;8.808;2022-08-19T00:47:39;19.90;99.90
9043;DHT22;4556;49.150;8.808;2022-08-19T00:50:08;19.90;99.90
9043;DHT22;4556;49.150;8.808;2022-08-19T00:52:39;19.90;99.90
9043;DHT22;4556;49.150;8.808;2022-08-19T00:55:14;19.90;99.90
9043;DHT22;4556;49.150;8.808;2022-08-19T00:57:45;20.00;99.90
9043;DHT22;4556;49.150;8.808;2022-08-19T01:00:15;20.00;99.90
9043;DHT22;4556;49.150;8.808;2022-08-19T01:02:43;20.20;99.90
9043;DHT22;4556;49.150;8.808;2022-08-19T01:05:12;20.10;99.90
9043;DHT22;4556;49.150;8.808;2022-08-19T01:07:40;19.70;99.90
9043;DHT22;4556;49.150;8.808;2022-08-19T01:10:10;20.00;99.90
9043;DHT22;4556;49.150;8.808;2022-08-19T01:12:40;19.90;99.90
9043;DHT22;4556;49.150;8.808;2022-08-19T01:15:10;19.80;99.90
9043;DHT22;4556;49.150;8.808;2022-08-19T01:17:39;19.80;99.90
9043;DHT22;4556;49.150;8.808;2022-08-19T01:20:10;19.80;99.90
9043;DHT22;4556;49.150;8.808;2022-08-19T01:22:43;19.70;99.90
9043;DHT22;4556;49.150;8.808;2022-08-19T01:25:12;19.80;99.90
9043;DHT22;4556;49.150;8.808;2022-08-19T01:27:41;19.70;99.90
9043;DHT22;4556;49.150;8.808;2022-08-19T01:30:13;19.80;99.90
9043;DHT22;4556;49.150;8.808;2022-08-19T01:32:41;19.80;99.90
9043;DHT22;4556;49.150;8.808;2022-08-19T01:35:10;19.80;99.90
9043;DHT22;4556;49.150;8.808;2022-08-19T01:37:56;20.00;99.90
9043;DHT22;4556;49.150;8.808;2022-08-19T01:40:27;19.80;99.90
9043;DHT22;4556;49.150;8.808;2022-08-19T01:42:55;19.80;99.90
9043;DHT22;4556;49.150;8.808;2022-08-19T01:45:24;19.80;99.90
9043;DHT22;4556;49.150;8.808;2022-08-19T01:47:52;20.00;99.90
9043;DHT22;4556;49.150;8.808;2022-08-19T01:50:19;19.70;99.90
9043;DHT22;4556;49.150;8.808;2022-08-19T01:52:48;19.70;99.90
9043;DHT22;4556;49.150;8.808;2022-08-19T01:55:20;19.70;99.90
9043;DHT22;4556;49.150;8.808;2022-08-19T01:57:52;19.80;99.90
9043;DHT22;4556;49.150;8.808;2022-08-19T02:00:23;19.80;99.90
9043;DHT22;4556;49.150;8.808;2022-08-19T02:02:50;19.70;99.90
9043;DHT22;4556;49.150;8.808;2022-08-19T02:05:18;19.70;99.90
9043;DHT22;4556;49.150;8.808;2022-08-19T02:07:48;19.70;99.90
9043;DHT22;4556;49.150;8.808;2022-08-19T02:10:19;19.70;99.90
9043;DHT22;4556;49.150;8.808;2022-08-19T02:12:48;19.60;99.90
9043;DHT22;4556;49.150;8.808;2022-08-19T02:15:16;19.60;99.90
9043;DHT22;4556;49.150;8.808;2022-08-19T02:17:44;19.60;99.90
9043;DHT22;4556;49.150;8.808;2022-08-19T02:20:12;19.60;99.90
9043;DHT22;4556;49.150;8.808;2022-08-19T02:22:40;19.60;99.90
9043;DHT22;4556;49.150;8.808;2022-08-19T02:25:10;19.60;99.90
9043;DHT22;4556;49.150;8.808;2022-08-19T02:27:37;19.70;99.90
9043;DHT22;4556;49.150;8.808;2022-08-19T02:30:06;19.60;99.90
9043;DHT22;4556;49.150;8.808;2022-08-19T02:32:34;19.60;99.90
9043;DHT22;4556;49.150;8.808;2022-08-19T02:35:03;19.60;99.90
9043;DHT22;4556;49.150;8.808;2022-08-19T02:37:31;19.60;99.90
9043;DHT22;4556;49.150;8.808;2022-08-19T02:40:16;19.60;99.90
9043;DHT22;4556;49.150;8.808;2022-08-19T02:42:44;19.70;99.90
9043;DHT22;4556;49.150;8.808;2022-08-19T02:45:11;19.70;99.90
9043;DHT22;4556;49.150;8.808;2022-08-19T02:47:39;19.70;99.90
9043;DHT22;4556;49.150;8.808;2022-08-19T02:50:07;19.70;99.90
9043;DHT22;4556;49.150;8.808;2022-08-19T02:52:34;19.60;99.90
9043;DHT22;4556;49.150;8.808;2022-08-19T02:55:02;19.70;99.90
9043;DHT22;4556;49.150;8.808;2022-08-19T02:57:31;19.60;99.90
9043;DHT22;4556;49.150;8.808;2022-08-19T02:59:59;19.50;99.90
9043;DHT22;4556;49.150;8.808;2022-08-19T03:02:27;19.50;99.90
9043;DHT22;4556;49.150;8.808;2022-08-19T03:04:54;19.50;99.90
9043;DHT22;4556;49.150;8.808;2022-08-19T03:07:21;19.40;99.90
9043;DHT22;4556;49.150;8.808;2022-08-19T03:09:48;19.40;99.90
9043;DHT22;4556;49.150;8.808;2022-08-19T03:12:15;19.30;99.90
9043;DHT22;4556;49.150;8.808;2022-08-19T03:14:44;19.40;99.90
9043;DHT22;4556;49.150;8.808;2022-08-19T03:17:12;19.40;99.90
9043;DHT22;4556;49.150;8.808;2022-08-19T03:19:39;20.10;99.90
9043;DHT22;4556;49.150;8.808;2022-08-19T03:22:06;19.40;99.90
9043;DHT22;4556;49.150;8.808;2022-08-19T03:24:34;19.30;99.90
9043;DHT22;4556;49.150;8.808;2022-08-19T03:27:01;21.80;99.90
9043;DHT22;4556;49.150;8.808;2022-08-19T03:29:31;19.20;99.90
9043;DHT22;4556;49.150;8.808;2022-08-19T03:32:01;19.30;99.90
9043;DHT22;4556;49.150;8.808;2022-08-19T03:34:31;19.10;99.90
9043;DHT22;4556;49.150;8.808;2022-08-19T03:37:03;19.10;99.90
9043;DHT22;4556;49.150;8.808;2022-08-19T03:39:31;19.20;99.90
9043;DHT22;4556;49.150;8.808;2022-08-19T03:41:58;16.70;99.90
9043;DHT22;4556;49.150;8.808;2022-08-19T03:44:28;19.20;99.90
9043;DHT22;4556;49.150;8.808;2022-08-19T03:46:59;19.20;99.90
9043;DHT22;4556;49.150;8.808;2022-08-19T03:49:29;19.10;99.90
9043;DHT22;4556;49.150;8.808;2022-08-19T03:51:58;19.00;99.90
9043;DHT22;4556;49.150;8.808;2022-08-19T03:54:26;18.90;99.90
9043;DHT22;4556;49.150;8.808;2022-08-19T03:56:55;18.90;99.90
9043;DHT22;4556;49.150;8.808;2022-08-19T03:59:24;18.80;99.90
9043;DHT22;4556;49.150;8.808;2022-08-19T04:01:52;18.80;99.90
9043;DHT22;4556;49.150;8.808;2022-08-19T04:04:21;18.80;99.90
9043;DHT22;4556;49.150;8.808;2022-08-19T04:06:48;18.70;99.90
9043;DHT22;4556;49.150;8.808;2022-08-19T04:09:16;18.80;99.90
9043;DHT22;4556;49.150;8.808;2022-08-19T04:11:45;18.70;99.90
9043;DHT22;4556;49.150;8.808;2022-08-19T04:14:15;18.70;99.90
9043;DHT22;4556;49.150;8.808;2022-08-19T04:16:43;18.70;99.90
9043;DHT22;4556;49.150;8.808;2022-08-19T04:19:11;21.10;99.90
9043;DHT22;4556;49.150;8.808;2022-08-19T04:21:40;18.70;99.90
9043;DHT22;4556;49.150;8.808;2022-08-19T04:24:09;18.60;99.90
9043;DHT22;4556;49.150;8.808;2022-08-19T04:26:36;18.70;99.90
9043;DHT22;4556;49.150;8.808;2022-08-19T04:29:06;18.70;99.90
9043;DHT22;4556;49.150;8.808;2022-08-19T04:31:34;18.70;99.90
9043;DHT22;4556;49.150;8.808;2022-08-19T04:34:04;18.70;99.90
9043;DHT22;4556;49.150;8.808;2022-08-19T04:36:34;18.70;99.90
9043;DHT22;4556;49.150;8.808;2022-08-19T04:39:06;18.70;99.90
9043;DHT22;4556;49.150;8.808;2022-08-19T04:41:34;18.20;99.90
9043;DHT22;4556;49.150;8.808;2022-08-19T04:44:18;18.70;99.90
9043;DHT22;4556;49.150;8.808;2022-08-19T04:46:47;18.70;99.90
9043;DHT22;4556;49.150;8.808;2022-08-19T04:49:16;19.60;99.90
9043;DHT22;4556;49.150;8.808;2022-08-19T04:51:45;18.70;99.90
9043;DHT22;4556;49.150;8.808;2022-08-19T04:54:15;18.70;99.90
9043;DHT22;4556;49.150;8.808;2022-08-19T04:56:42;19.90;99.90
9043;DHT22;4556;49.150;8.808;2022-08-19T04:59:10;18.70;99.90
9043;DHT22;4556;49.150;8.808;2022-08-19T05:01:37;18.80;99.90
9043;DHT22;4556;49.150;8.808;2022-08-19T05:04:06;18.90;99.90
9043;DHT22;4556;49.150;8.808;2022-08-19T05:06:34;16.60;99.90
9043;DHT22;4556;49.150;8.808;2022-08-19T05:09:03;18.90;99.90
9043;DHT22;4556;49.150;8.808;2022-08-19T05:11:35;18.90;99.90
9043;DHT22;4556;49.150;8.808;2022-08-19T05:14:04;19.10;99.90
9043;DHT22;4556;49.150;8.808;2022-08-19T05:16:32;19.00;99.90
9043;DHT22;4556;49.150;8.808;2022-08-19T05:18:59;19.30;99.90
9043;DHT22;4556;49.150;8.808;2022-08-19T05:21:44;19.10;99.90
9043;DHT22;4556;49.150;8.808;2022-08-19T05:24:29;17.40;99.90
9043;DHT22;4556;49.150;8.808;2022-08-19T05:26:59;19.10;99.90
9043;DHT22;4556;49.150;8.808;2022-08-19T05:29:29;19.20;99.90
9043;DHT22;4556;49.150;8.808;2022-08-19T05:31:57;19.10;99.90
9043;DHT22;4556;49.150;8.808;2022-08-19T05:34:25;19.20;99.90
9043;DHT22;4556;49.150;8.808;2022-08-19T05:36:54;19.20;99.90
9043;DHT22;4556;49.150;8.808;2022-08-19T05:39:23;19.20;99.90
9043;DHT22;4556;49.150;8.808;2022-08-19T05:41:52;19.30;99.90
9043;DHT22;4556;49.150;8.808;2022-08-19T05:44:21;19.30;99.90
9043;DHT22;4556;49.150;8.808;2022-08-19T05:46:48;19.30;99.90
9043;DHT22;4556;49.150;8.808;2022-08-19T05:49:19;19.40;99.90
9043;DHT22;4556;49.150;8.808;2022-08-19T05:51:47;19.30;99.90
9043;DHT22;4556;49.150;8.808;2022-08-19T05:54:14;19.90;99.90
9043;DHT22;4556;49.150;8.808;2022-08-19T05:56:42;19.40;99.90
9043;DHT22;4556;49.150;8.808;2022-08-19T05:59:10;19.50;99.90
9043;DHT22;4556;49.150;8.808;2022-08-19T06:01:42;19.50;99.90
9043;DHT22;4556;49.150;8.808;2022-08-19T06:04:10;19.50;99.90
9043;DHT22;4556;49.150;8.808;2022-08-19T06:06:39;19.50;99.90
9043;DHT22;4556;49.150;8.808;2022-08-19T06:09:07;19.60;99.90
9043;DHT22;4556;49.150;8.808;2022-08-19T06:11:38;19.50;99.90
9043;DHT22;4556;49.150;8.808;2022-08-19T06:14:08;19.50;99.90
9043;DHT22;4556;49.150;8.808;2022-08-19T06:16:36;19.60;99.90
9043;DHT22;4556;49.150;8.808;2022-08-19T06:19:10;19.60;99.90
9043;DHT22;4556;49.150;8.808;2022-08-19T06:21:39;19.80;99.90
9043;DHT22;4556;49.150;8.808;2022-08-19T06:24:09;19.70;99.90
9043;DHT22;4556;49.150;8.808;2022-08-19T06:26:41;19.80;99.90
9043;DHT22;4556;49.150;8.808;2022-08-19T06:29:10;20.00;99.90
9043;DHT22;4556;49.150;8.808;2022-08-19T06:31:40;21.00;99.90
9043;DHT22;4556;49.150;8.808;2022-08-19T06:34:09;20.00;99.90
9043;DHT22;4556;49.150;8.808;2022-08-19T06:36:39;20.10;99.90
9043;DHT22;4556;49.150;8.808;2022-08-19T06:39:10;20.10;99.90
9043;DHT22;4556;49.150;8.808;2022-08-19T06:41:40;20.30;99.90
9043;DHT22;4556;49.150;8.808;2022-08-19T06:44:08;20.60;99.90
9043;DHT22;4556;49.150;8.808;2022-08-19T06:46:35;20.40;99.90
9043;DHT22;4556;49.150;8.808;2022-08-19T06:49:03;20.40;99.90
9043;DHT22;4556;49.150;8.808;2022-08-19T06:51:31;20.40;99.90
9043;DHT22;4556;49.150;8.808;2022-08-19T06:53:59;20.40;99.90
9043;DHT22;4556;49.150;8.808;2022-08-19T06:56:29;20.50;99.90
9043;DHT22;4556;49.150;8.808;2022-08-19T06:59:00;20.70;99.90
9043;DHT22;4556;49.150;8.808;2022-08-19T07:01:28;20.50;99.90
9043;DHT22;4556;49.150;8.808;2022-08-19T07:03:55;20.60;99.90
9043;DHT22;4556;49.150;8.808;2022-08-19T07:06:22;20.60;99.90
9043;DHT22;4556;49.150;8.808;2022-08-19T07:08:51;20.60;99.90
9043;DHT22;4556;49.150;8.808;2022-08-19T07:11:18;20.60;99.90
9043;DHT22;4556;49.150;8.808;2022-08-19T07:13:46;20.70;99.90
9043;DHT22;4556;49.150;8.808;2022-08-19T07:16:16;20.90;99.90
9043;DHT22;4556;49.150;8.808;2022-08-19T07:18:45;20.80;99.90
9043;DHT22;4556;49.150;8.808;2022-08-19T07:21:16;20.80;99.90
9043;DHT22;4556;49.150;8.808;2022-08-19T07:23:43;21.00;99.90
9043;DHT22;4556;49.150;8.808;2022-08-19T07:26:15;20.80;99.90
9043;DHT22;4556;49.150;8.808;2022-08-19T07:28:45;21.00;99.90
9043;DHT22;4556;49.150;8.808;2022-08-19T07:31:13;20.30;99.90
9043;DHT22;4556;49.150;8.808;2022-08-19T07:33:42;20.70;99.90
9043;DHT22;4556;49.150;8.808;2022-08-19T07:36:12;20.90;99.90
9043;DHT22;4556;49.150;8.808;2022-08-19T07:38:48;20.80;99.90
9043;DHT22;4556;49.150;8.808;2022-08-19T07:41:19;21.00;99.90
9043;DHT22;4556;49.150;8.808;2022-08-19T07:43:47;21.00;99.90
9043;DHT22;4556;49.150;8.808;2022-08-19T07:46:15;21.00;99.90
9043;DHT22;4556;49.150;8.808;2022-08-19T07:48:43;21.10;99.90
9043;DHT22;4556;49.150;8.808;2022-08-19T07:51:13;21.20;99.90
9043;DHT22;4556;49.150;8.808;2022-08-19T07:53:41;21.20;99.90
9043;DHT22;4556;49.150;8.808;2022-08-19T07:56:11;21.30;99.90
9043;DHT22;4556;49.150;8.808;2022-08-19T07:58:43;21.30;99.90
9043;DHT22;4556;49.150;8.808;2022-08-19T08:01:14;21.50;99.90
9043;DHT22;4556;49.150;8.808;2022-08-19T08:03:42;21.70;99.90
9043;DHT22;4556;49.150;8.808;2022-08-19T08:06:29;22.00;99.90
9043;DHT22;4556;49.150;8.808;2022-08-19T08:09:14;22.30;99.90
9043;DHT22;4556;49.150;8.808;2022-08-19T08:11:49;22.50;99.90
9043;DHT22;4556;49.150;8.808;2022-08-19T08:14:23;22.50;99.90
9043;DHT22;4556;49.150;8.808;2022-08-19T08:16:51;22.50;99.90
9043;DHT22;4556;49.150;8.808;2022-08-19T08:19:21;22.50;99.90
9043;DHT22;4556;49.150;8.808;2022-08-19T08:22:02;22.50;99.90
9043;DHT22;4556;49.150;8.808;2022-08-19T08:24:31;22.70;99.90
9043;DHT22;4556;49.150;8.808;2022-08-19T08:27:01;23.00;99.90
9043;DHT22;4556;49.150;8.808;2022-08-19T08:29:30;23.00;99.90
9043;DHT22;4556;49.150;8.808;2022-08-19T08:31:58;23.10;99.90
9043;DHT22;4556;49.150;8.808;2022-08-19T08:34:26;23.10;99.90
9043;DHT22;4556;49.150;8.808;2022-08-19T08:36:52;23.10;99.90
9043;DHT22;4556;49.150;8.808;2022-08-19T08:39:20;22.80;99.90
9043;DHT22;4556;49.150;8.808;2022-08-19T08:41:53;22.50;99.90
9043;DHT22;4556;49.150;8.808;2022-08-19T08:44:26;22.50;99.90
9043;DHT22;4556;49.150;8.808;2022-08-19T08:47:00;22.70;99.90
9043;DHT22;4556;49.150;8.808;2022-08-19T08:49:32;22.80;99.90
9043;DHT22;4556;49.150;8.808;2022-08-19T08:52:04;22.90;99.90
9043;DHT22;4556;49.150;8.808;2022-08-19T08:54:36;22.80;99.90
9043;DHT22;4556;49.150;8.808;2022-08-19T08:57:10;22.90;99.90
9043;DHT22;4556;49.150;8.808;2022-08-19T08:59:41;22.80;99.90
9043;DHT22;4556;49.150;8.808;2022-08-19T09:02:11;23.10;99.90
9043;DHT22;4556;49.150;8.808;2022-08-19T09:04:38;23.00;99.90
9043;DHT22;4556;49.150;8.808;2022-08-19T09:07:21;23.00;99.90
9043;DHT22;4556;49.150;8.808;2022-08-19T09:09:54;23.00;99.90
9043;DHT22;4556;49.150;8.808;2022-08-19T09:12:32;23.00;99.90
9043;DHT22;4556;49.150;8.808;2022-08-19T09:15:07;23.20;99.90
9043;DHT22;4556;49.150;8.808;2022-08-19T09:17:37;23.20;99.90
9043;DHT22;4556;49.150;8.808;2022-08-19T09:20:10;23.10;99.90
9043;DHT22;4556;49.150;8.808;2022-08-19T09:22:41;23.10;99.90
9043;DHT22;4556;49.150;8.808;2022-08-19T09:25:10;22.90;99.90
9043;DHT22;4556;49.150;8.808;2022-08-19T09:27:39;23.20;99.90
9043;DHT22;4556;49.150;8.808;2022-08-19T09:30:10;23.10;99.90
9043;DHT22;4556;49.150;8.808;2022-08-19T09:32:39;23.20;99.90
9043;DHT22;4556;49.150;8.808;2022-08-19T09:35:09;23.60;99.90
9043;DHT22;4556;49.150;8.808;2022-08-19T09:37:36;23.80;99.90
9043;DHT22;4556;49.150;8.808;2022-08-19T09:40:04;23.70;99.90
9043;DHT22;4556;49.150;8.808;2022-08-19T09:42:32;24.10;99.90
9043;DHT22;4556;49.150;8.808;2022-08-19T09:45:00;24.50;99.90
9043;DHT22;4556;49.150;8.808;2022-08-19T09:47:28;24.90;99.90
9043;DHT22;4556;49.150;8.808;2022-08-19T09:49:56;25.00;99.90
9043;DHT22;4556;49.150;8.808;2022-08-19T09:52:23;24.90;99.90
9043;DHT22;4556;49.150;8.808;2022-08-19T09:54:52;24.90;99.90
9043;DHT22;4556;49.150;8.808;2022-08-19T09:57:19;24.70;99.90
9043;DHT22;4556;49.150;8.808;2022-08-19T09:59:46;24.70;99.90
9043;DHT22;4556;49.150;8.808;2022-08-19T10:02:14;24.70;99.90
9043;DHT22;4556;49.150;8.808;2022-08-19T10:04:41;24.90;99.90
9043;DHT22;4556;49.150;8.808;2022-08-19T10:07:35;25.10;99.90
9043;DHT22;4556;49.150;8.808;2022-08-19T10:10:03;25.20;99.90
9043;DHT22;4556;49.150;8.808;2022-08-19T10:12:31;25.30;99.90
9043;DHT22;4556;49.150;8.808;2022-08-19T10:15:01;24.30;99.90
9043;DHT22;4556;49.150;8.808;2022-08-19T10:17:28;25.10;99.90
9043;DHT22;4556;49.150;8.808;2022-08-19T10:19:56;24.90;99.90
9043;DHT22;4556;49.150;8.808;2022-08-19T10:22:24;25.10;99.90
9043;DHT22;4556;49.150;8.808;2022-08-19T10:24:53;25.30;99.90
9043;DHT22;4556;49.150;8.808;2022-08-19T10:27:20;25.70;99.90
9043;DHT22;4556;49.150;8.808;2022-08-19T10:29:47;26.20;99.90
9043;DHT22;4556;49.150;8.808;2022-08-19T10:32:14;25.40;99.90
9043;DHT22;4556;49.150;8.808;2022-08-19T10:34:42;25.30;99.90
9043;DHT22;4556;49.150;8.808;2022-08-19T10:37:10;25.20;99.90
9043;DHT22;4556;49.150;8.808;2022-08-19T10:39:37;25.30;99.90
9043;DHT22;4556;49.150;8.808;2022-08-19T10:42:07;25.20;99.90
9043;DHT22;4556;49.150;8.808;2022-08-19T10:44:36;25.30;99.90
9043;DHT22;4556;49.150;8.808;2022-08-19T10:47:04;25.50;99.90
9043;DHT22;4556;49.150;8.808;2022-08-19T10:49:32;25.60;99.90
9043;DHT22;4556;49.150;8.808;2022-08-19T10:52:19;25.90;99.90
9043;DHT22;4556;49.150;8.808;2022-08-19T10:55:00;26.20;99.90
9043;DHT22;4556;49.150;8.808;2022-08-19T10:57:46;26.30;99.90
9043;DHT22;4556;49.150;8.808;2022-08-19T11:00:13;26.40;99.90
9043;DHT22;4556;49.150;8.808;2022-08-19T11:02:41;26.20;99.90
9043;DHT22;4556;49.150;8.808;2022-08-19T11:05:09;26.10;99.90
9043;DHT22;4556;49.150;8.808;2022-08-19T11:07:38;25.90;99.90
9043;DHT22;4556;49.150;8.808;2022-08-19T11:10:06;25.80;99.90
9043;DHT22;4556;49.150;8.808;2022-08-19T11:12:35;25.90;99.90
9043;DHT22;4556;49.150;8.808;2022-08-19T11:15:08;26.00;99.90
9043;DHT22;4556;49.150;8.808;2022-08-19T11:17:36;26.10;99.90
9043;DHT22;4556;49.150;8.808;2022-08-19T11:20:08;26.10;99.90
9043;DHT22;4556;49.150;8.808;2022-08-19T11:22:36;25.80;99.90
9043;DHT22;4556;49.150;8.808;2022-08-19T11:25:04;25.80;99.90
9043;DHT22;4556;49.150;8.808;2022-08-19T11:27:31;25.60;99.90
9043;DHT22;4556;49.150;8.808;2022-08-19T11:29:59;25.70;99.90
9043;DHT22;4556;49.150;8.808;2022-08-19T11:32:27;25.90;99.90
9043;DHT22;4556;49.150;8.808;2022-08-19T11:34:54;26.00;99.90
9043;DHT22;4556;49.150;8.808;2022-08-19T11:37:21;26.10;99.90
9043;DHT22;4556;49.150;8.808;2022-08-19T11:39:49;26.20;99.90
9043;DHT22;4556;49.150;8.808;2022-08-19T11:42:17;26.10;99.90
9043;DHT22;4556;49.150;8.808;2022-08-19T11:45:01;26.20;99.90
9043;DHT22;4556;49.150;8.808;2022-08-19T11:47:31;26.60;99.90
9043;DHT22;4556;49.150;8.808;2022-08-19T11:49:58;26.90;99.90
9043;DHT22;4556;49.150;8.808;2022-08-19T11:52:25;26.90;99.90
9043;DHT22;4556;49.150;8.808;2022-08-19T11:54:53;26.40;99.90
9043;DHT22;4556;49.150;8.808;2022-08-19T11:57:20;26.40;99.90
9043;DHT22;4556;49.150;8.808;2022-08-19T11:59:49;26.80;99.90
9043;DHT22;4556;49.150;8.808;2022-08-19T12:02:16;27.10;99.90
9043;DHT22;4556;49.150;8.808;2022-08-19T12:04:46;27.20;99.90
9043;DHT22;4556;49.150;8.808;2022-08-19T12:07:13;27.50;99.90
9043;DHT22;4556;49.150;8.808;2022-08-19T12:09:40;27.20;99.90
9043;DHT22;4556;49.150;8.808;2022-08-19T12:12:08;27.00;99.90
9043;DHT22;4556;49.150;8.808;2022-08-19T12:14:36;26.70;99.90
9043;DHT22;4556;49.150;8.808;2022-08-19T12:17:03;26.70;99.90
9043;DHT22;4556;49.150;8.808;2022-08-19T12:19:33;26.70;99.90
9043;DHT22;4556;49.150;8.808;2022-08-19T12:22:02;26.90;99.90
9043;DHT22;4556;49.150;8.808;2022-08-19T12:24:31;26.80;99.90
9043;DHT22;4556;49.150;8.808;2022-08-19T12:26:58;26.70;99.90
9043;DHT22;4556;49.150;8.808;2022-08-19T12:29:27;26.70;99.90
9043;DHT22;4556;49.150;8.808;2022-08-19T12:31:55;26.60;99.90
9043;DHT22;4556;49.150;8.808;2022-08-19T12:34:28;24.80;99.90
9043;DHT22;4556;49.150;8.808;2022-08-19T12:36:57;26.20;99.90
9043;DHT22;4556;49.150;8.808;2022-08-19T12:39:34;26.00;99.90
9043;DHT22;4556;49.150;8.808;2022-08-19T12:42:02;25.90;99.90
9043;DHT22;4556;49.150;8.808;2022-08-19T12:44:29;25.90;99.90
9043;DHT22;4556;49.150;8.808;2022-08-19T12:46:57;25.90;99.90
9043;DHT22;4556;49.150;8.808;2022-08-19T12:49:31;25.70;99.90
9043;DHT22;4556;49.150;8.808;2022-08-19T12:51:59;25.80;99.90
9043;DHT22;4556;49.150;8.808;2022-08-19T12:54:26;25.80;99.90
9043;DHT22;4556;49.150;8.808;2022-08-19T12:56:55;26.00;99.90
9043;DHT22;4556;49.150;8.808;2022-08-19T12:59:22;26.10;99.90
9043;DHT22;4556;49.150;8.808;2022-08-19T13:01:50;26.30;99.90
9043;DHT22;4556;49.150;8.808;2022-08-19T13:04:17;26.40;99.90
9043;DHT22;4556;49.150;8.808;2022-08-19T13:06:44;26.30;99.90
9043;DHT22;4556;49.150;8.808;2022-08-19T13:09:12;26.30;99.90
9043;DHT22;4556;49.150;8.808;2022-08-19T13:11:39;26.20;99.90
9043;DHT22;4556;49.150;8.808;2022-08-19T13:14:08;26.10;99.90
9043;DHT22;4556;49.150;8.808;2022-08-19T13:16:36;26.00;99.90
9043;DHT22;4556;49.150;8.808;2022-08-19T13:19:04;26.00;99.90
9043;DHT22;4556;49.150;8.808;2022-08-19T13:21:32;26.10;99.90
9043;DHT22;4556;49.150;8.808;2022-08-19T13:24:00;26.20;99.90
9043;DHT22;4556;49.150;8.808;2022-08-19T13:26:27;26.30;99.90
9043;DHT22;4556;49.150;8.808;2022-08-19T13:29:04;26.30;99.90
9043;DHT22;4556;49.150;8.808;2022-08-19T13:31:50;26.30;99.90
9043;DHT22;4556;49.150;8.808;2022-08-19T13:34:36;26.40;99.90
9043;DHT22;4556;49.150;8.808;2022-08-19T13:37:04;26.30;99.90
9043;DHT22;4556;49.150;8.808;2022-08-19T13:39:37;26.30;99.90
9043;DHT22;4556;49.150;8.808;2022-08-19T13:42:04;26.30;99.90
9043;DHT22;4556;49.150;8.808;2022-08-19T13:44:33;26.50;99.90
9043;DHT22;4556;49.150;8.808;2022-08-19T13:47:04;26.70;99.90
9043;DHT22;4556;49.150;8.808;2022-08-19T13:49:33;26.00;99.90
9043;DHT22;4556;49.150;8.808;2022-08-19T13:52:02;27.00;99.90
9043;DHT22;4556;49.150;8.808;2022-08-19T13:54:29;27.00;99.90
9043;DHT22;4556;49.150;8.808;2022-08-19T13:56:56;27.00;99.90
9043;DHT22;4556;49.150;8.808;2022-08-19T13:59:25;27.00;99.90
9043;DHT22;4556;49.150;8.808;2022-08-19T14:01:52;27.00;99.90
9043;DHT22;4556;49.150;8.808;2022-08-19T14:04:21;27.10;99.90
9043;DHT22;4556;49.150;8.808;2022-08-19T14:06:48;27.20;99.90
9043;DHT22;4556;49.150;8.808;2022-08-19T14:09:15;27.10;99.90
9043;DHT22;4556;49.150;8.808;2022-08-19T14:11:42;27.20;99.90
9043;DHT22;4556;49.150;8.808;2022-08-19T14:14:11;27.40;98.70
9043;DHT22;4556;49.150;8.808;2022-08-19T14:16:38;27.40;97.80
9043;DHT22;4556;49.150;8.808;2022-08-19T14:19:05;27.60;98.40
9043;DHT22;4556;49.150;8.808;2022-08-19T14:21:34;27.60;98.30
9043;DHT22;4556;49.150;8.808;2022-08-19T14:24:02;27.80;98.90
9043;DHT22;4556;49.150;8.808;2022-08-19T14:26:29;27.90;97.60
9043;DHT22;4556;49.150;8.808;2022-08-19T14:28:56;27.90;97.30
9043;DHT22;4556;49.150;8.808;2022-08-19T14:31:24;27.90;97.20
9043;DHT22;4556;49.150;8.808;2022-08-19T14:33:51;27.70;97.30
9043;DHT22;4556;49.150;8.808;2022-08-19T14:36:19;27.80;97.80
9043;DHT22;4556;49.150;8.808;2022-08-19T14:38:48;27.70;97.30
9043;DHT22;4556;49.150;8.808;2022-08-19T14:41:18;27.80;98.20
9043;DHT22;4556;49.150;8.808;2022-08-19T14:43:48;27.90;97.60
9043;DHT22;4556;49.150;8.808;2022-08-19T14:46:17;27.80;96.40
9043;DHT22;4556;49.150;8.808;2022-08-19T14:48:46;27.70;96.30
9043;DHT22;4556;49.150;8.808;2022-08-19T14:51:13;27.80;95.80
9043;DHT22;4556;49.150;8.808;2022-08-19T14:53:42;27.70;96.40
9043;DHT22;4556;49.150;8.808;2022-08-19T14:56:13;27.70;96.10
9043;DHT22;4556;49.150;8.808;2022-08-19T14:58:42;27.70;96.00
9043;DHT22;4556;49.150;8.808;2022-08-19T15:01:11;27.70;96.00
9043;DHT22;4556;49.150;8.808;2022-08-19T15:03:39;27.60;96.20
9043;DHT22;4556;49.150;8.808;2022-08-19T15:06:07;27.50;95.90
9043;DHT22;4556;49.150;8.808;2022-08-19T15:08:36;27.60;96.10
9043;DHT22;4556;49.150;8.808;2022-08-19T15:11:08;27.50;96.50
9043;DHT22;4556;49.150;8.808;2022-08-19T15:13:38;27.50;95.80
9043;DHT22;4556;49.150;8.808;2022-08-19T15:16:06;27.60;96.00
9043;DHT22;4556;49.150;8.808;2022-08-19T15:18:33;25.50;95.50
9043;DHT22;4556;49.150;8.808;2022-08-19T15:21:01;27.60;96.30
9043;DHT22;4556;49.150;8.808;2022-08-19T15:23:29;27.50;95.70
9043;DHT22;4556;49.150;8.808;2022-08-19T15:25:57;27.40;95.30
9043;DHT22;4556;49.150;8.808;2022-08-19T15:28:25;27.40;95.60
9043;DHT22;4556;49.150;8.808;2022-08-19T15:30:54;27.20;96.20
9043;DHT22;4556;49.150;8.808;2022-08-19T15:33:21;27.20;95.40
9043;DHT22;4556;49.150;8.808;2022-08-19T15:35:49;27.10;95.60
9043;DHT22;4556;49.150;8.808;2022-08-19T15:38:18;27.10;96.00
9043;DHT22;4556;49.150;8.808;2022-08-19T15:40:47;27.10;96.20
9043;DHT22;4556;49.150;8.808;2022-08-19T15:43:15;27.00;95.80
9043;DHT22;4556;49.150;8.808;2022-08-19T15:45:44;27.10;96.10
9043;DHT22;4556;49.150;8.808;2022-08-19T15:48:13;26.20;96.40
9043;DHT22;4556;49.150;8.808;2022-08-19T15:50:40;27.00;97.00
9043;DHT22;4556;49.150;8.808;2022-08-19T15:53:09;26.60;97.10
9043;DHT22;4556;49.150;8.808;2022-08-19T15:55:42;26.90;96.10
9043;DHT22;4556;49.150;8.808;2022-08-19T15:58:12;26.80;96.50
9043;DHT22;4556;49.150;8.808;2022-08-19T16:00:57;26.80;97.40
9043;DHT22;4556;49.150;8.808;2022-08-19T16:03:54;26.80;97.00
9043;DHT22;4556;49.150;8.808;2022-08-19T16:06:39;26.80;97.00
9043;DHT22;4556;49.150;8.808;2022-08-19T16:09:06;26.80;96.60
9043;DHT22;4556;49.150;8.808;2022-08-19T16:11:34;26.70;96.70
9043;DHT22;4556;49.150;8.808;2022-08-19T16:14:01;26.80;96.90
9043;DHT22;4556;49.150;8.808;2022-08-19T16:16:31;26.80;97.40